Date,TemperatureHighF,TemperatureAvgF,TemperatureLowF,DewpointHighF,DewpointAvgF,DewpointLowF,HumidityHigh,HumidityAvg,HumidityLow,PressureMaxIn,PressureMinIn,WindSpeedMaxMPH,WindSpeedAvgMPH,GustSpeedMaxMPH,PrecipitationSumIn
2013-1-22,73.6,64.4,57.3,34.0,25.2,17.0,35,23,14,30.03,29.98,20,4,25,0.00
2013-1-23,72.2,58.0,51.4,49.0,34.9,17.0,90,47,18,30.04,29.92,28,4,39,0.00
2013-1-24,61.5,56.2,50.7,59.0,54.0,43.0,98,93,56,30.11,29.99,24,4,26,0.47
2013-1-25,67.7,60.4,54.1,58.0,54.7,51.0,98,82,68,30.10,29.95,15,4,19,0.02
2013-1-26,61.3,55.8,52.6,56.0,52.6,51.0,96,89,81,29.97,29.92,19,4,24,0.00
2013-2-5,52.2,49.5,46.4,49.0,47.2,45.0,99,92,87,30.07,30.00,11,4,14,0.00
2013-2-6,55.5,50.0,46.2,48.0,43.9,37.0,93,80,67,30.13,30.06,14,6,16,0.00
2013-2-7,54.3,48.1,42.2,48.0,43.9,39.0,93,86,67,30.13,30.00,21,9,24,0.00
2013-2-8,49.4,44.7,40.0,44.0,40.7,37.0,95,86,76,30.00,29.88,23,6,27,0.11
2013-2-9,51.9,45.8,38.7,45.0,40.1,32.0,93,81,64,30.07,29.95,18,5,21,0.00
2013-2-10,52.6,46.5,40.3,48.0,41.9,35.0,95,84,71,30.07,29.98,14,3,14,0.00
2013-2-11,54.8,48.0,41.6,48.0,42.6,35.0,95,82,66,30.22,30.03,15,4,16,0.00
2013-2-12,55.7,48.5,43.3,50.0,45.1,40.0,98,88,74,30.32,30.22,13,3,14,0.00
2013-2-13,59.8,52.2,44.3,49.0,43.8,39.0,98,74,52,30.28,30.14,19,4,19,0.00
2013-2-14,71.0,59.5,50.6,51.0,42.4,39.0,71,54,34,30.17,30.05,14,5,27,0.00
2013-2-15,77.0,65.5,59.3,45.0,37.7,33.0,45,36,20,30.17,30.11,18,7,24,0.00
2013-2-16,74.0,65.2,54.8,45.0,34.1,18.0,45,32,15,30.13,29.98,18,4,21,0.00
2013-2-17,56.8,50.4,44.7,49.0,43.5,28.0,96,79,36,29.99,29.92,20,6,23,0.00
2013-2-18,49.8,47.3,45.3,48.0,44.8,42.0,97,91,80,30.04,29.94,20,5,23,0.00
2013-2-19,49.5,45.2,39.4,46.0,40.5,34.0,97,84,73,29.95,29.73,40,9,40,0.09
2013-2-20,52.5,45.3,36.2,45.0,38.4,31.0,88,77,62,30.03,29.78,29,8,36,0.00
2013-2-21,54.1,47.7,39.7,45.0,40.2,35.0,88,76,59,30.13,30.00,22,5,23,0.00
2013-2-22,57.4,49.5,44.3,48.0,42.0,37.0,91,76,55,30.20,30.12,13,4,16,0.00
2013-2-23,54.5,49.8,44.4,48.0,42.7,31.0,93,78,47,30.19,30.03,32,8,39,0.00
2013-2-24,60.0,52.3,46.5,43.0,28.2,22.0,64,40,29,30.21,30.07,21,6,29,0.00
2013-2-25,58.2,50.8,44.7,48.0,40.0,31.0,92,68,45,30.22,30.08,15,4,16,0.00
2013-2-26,65.2,55.6,49.6,47.0,33.8,24.0,78,45,23,30.14,30.03,14,5,21,0.00
2013-2-27,64.5,53.2,46.4,47.0,39.9,27.0,93,63,32,30.29,30.14,13,4,14,0.00
2013-2-28,68.5,58.2,47.0,50.0,44.3,37.0,95,62,34,30.36,30.28,15,4,17,0.00
2013-3-1,74.9,65.5,56.2,51.0,46.6,44.0,68,51,35,30.34,30.14,14,5,14,0.00
2013-3-2,70.4,61.3,49.9,52.0,46.4,39.0,97,61,35,30.17,30.03,15,4,18,0.00
2013-3-3,59.0,52.0,47.3,54.0,49.7,47.0,97,92,70,30.07,29.99,17,6,24,0.00
2013-3-4,55.6,49.2,46.4,50.0,47.1,45.0,98,92,81,30.10,30.01,21,6,22,0.00
2013-3-5,52.4,49.2,47.7,47.0,44.4,42.0,95,83,73,30.08,29.99,17,6,21,0.00
2013-3-6,53.1,48.8,45.0,51.0,46.8,43.0,99,93,78,30.08,29.98,38,10,41,0.29
2013-3-7,53.1,48.0,42.9,50.0,44.0,39.0,96,86,69,29.98,29.80,20,6,26,0.15
2013-3-8,51.9,47.3,44.2,48.0,44.2,41.0,95,89,82,30.07,29.76,33,10,43,0.05
2013-3-9,56.0,49.6,41.1,50.0,43.4,37.0,90,79,64,30.26,30.06,18,6,23,0.00
2013-3-10,57.8,50.6,43.9,52.0,47.2,42.0,97,88,76,30.30,30.19,19,4,23,0.00
2013-3-11,65.3,53.9,43.1,52.0,45.7,42.0,98,76,50,30.21,30.04,15,4,16,0.00
2013-3-12,64.6,54.4,46.7,54.0,48.5,45.0,97,81,56,30.07,30.00,15,4,16,0.00
2013-3-13,73.9,53.7,43.3,59.0,49.3,43.0,99,87,41,30.09,30.02,14,2,23,0.01
2013-3-14,64.6,50.2,43.2,59.0,48.8,43.0,99,95,79,30.10,30.01,17,3,21,0.00
2013-3-15,72.1,58.9,50.5,56.0,51.3,48.0,97,77,49,30.03,29.93,13,3,18,0.00
2013-3-16,69.2,53.8,44.7,57.0,49.7,44.0,98,87,61,30.02,29.93,19,3,19,0.00
2013-3-17,67.6,56.0,46.8,53.0,45.7,37.0,96,70,46,30.03,29.96,23,6,24,0.00
2013-3-18,67.8,52.5,44.7,52.0,46.9,43.0,97,83,49,30.07,29.95,23,4,26,0.01
2013-3-19,70.9,55.5,47.4,52.0,47.8,40.0,96,78,36,30.08,30.00,23,5,25,0.00
2013-3-20,65.1,55.4,48.8,52.0,47.4,35.0,96,75,43,30.08,30.01,21,6,25,0.00
2013-3-21,56.2,51.3,47.2,51.0,47.6,45.0,98,87,76,30.03,29.90,19,6,22,0.00
2013-3-22,64.2,55.5,48.1,47.0,40.8,26.0,87,60,28,29.98,29.90,14,4,18,0.00
2013-3-23,68.0,56.9,48.0,46.0,33.0,19.0,90,45,21,30.04,29.95,15,5,18,0.00
2013-3-24,65.7,54.4,47.6,48.0,43.7,36.0,94,69,39,30.02,29.90,13,3,18,0.00
2013-3-25,66.9,51.7,44.6,55.0,47.5,44.0,97,87,48,29.96,29.88,11,2,15,0.00
2013-3-26,57.3,49.4,44.8,50.0,46.7,43.0,97,91,75,29.98,29.90,13,5,17,0.00
2013-3-27,58.1,50.9,44.8,54.0,49.4,44.0,99,95,81,30.02,29.92,16,4,18,0.00
2013-3-28,63.4,54.2,50.8,56.0,52.2,50.0,98,93,75,30.05,29.98,23,4,24,0.00
2013-3-29,60.9,51.8,44.5,55.0,50.2,44.0,99,95,79,30.08,30.00,12,4,16,0.00
2013-3-30,62.8,54.1,49.4,55.0,51.7,49.0,100,92,71,30.08,30.00,21,6,25,0.22
2013-3-31,62.2,54.8,51.7,56.0,53.6,51.0,100,96,75,30.07,30.01,20,6,20,0.00
2013-4-1,59.6,54.3,50.5,58.0,53.4,49.0,100,97,83,30.13,30.05,19,7,23,0.04
2013-4-2,60.5,52.6,47.0,56.0,50.7,46.0,99,93,79,30.12,30.01,23,6,25,0.00
2013-4-3,69.4,53.8,47.0,59.0,51.0,47.0,100,92,56,30.07,29.97,15,4,15,0.00
2013-4-4,62.3,54.1,48.7,57.0,52.3,48.0,100,94,75,30.10,30.01,13,5,14,0.02
2013-4-5,58.5,53.5,50.4,55.0,52.2,50.0,100,96,84,30.12,30.05,28,6,32,0.01
2013-4-6,63.6,53.7,48.5,54.0,51.1,47.0,99,91,64,30.16,30.05,31,9,38,0.00
2013-4-7,61.4,54.3,49.9,54.0,50.6,47.0,99,88,72,30.09,29.89,32,12,40,0.00
2013-4-8,54.5,50.6,47.5,50.0,45.1,42.0,98,82,69,29.90,29.80,39,21,44,0.00
2013-4-9,67.2,58.1,48.7,48.0,42.7,33.0,86,59,29,30.00,29.89,22,10,26,0.00
2013-4-10,74.8,61.4,52.4,50.0,40.2,30.0,87,49,20,30.11,29.98,15,4,17,0.00
2013-4-11,57.6,51.1,47.2,51.0,47.8,45.0,96,89,76,30.01,29.79,30,7,32,0.00
2013-4-12,64.6,50.9,44.2,54.0,47.6,43.0,98,89,65,29.86,29.76,20,6,26,0.00
2013-4-13,61.3,49.6,44.1,52.0,47.3,43.0,99,92,72,29.89,29.79,10,4,13,0.00
2013-4-14,62.7,50.6,42.7,52.0,46.2,42.0,98,86,66,29.86,29.77,14,4,17,0.01
2013-4-15,51.9,48.3,44.8,49.0,43.5,38.0,96,84,72,29.93,29.83,35,15,47,0.00
2013-4-16,52.9,48.1,38.9,44.0,38.5,32.0,80,70,53,30.05,29.93,35,11,37,0.00
2013-4-17,60.6,54.5,46.3,43.0,36.6,27.0,87,52,33,30.16,30.05,30,11,37,0.00
2013-4-18,68.8,58.3,46.9,46.0,35.1,27.0,94,46,24,30.20,30.14,16,4,19,0.00
2013-4-19,74.4,57.5,46.8,50.0,44.6,36.0,95,67,26,30.18,29.98,18,4,21,0.00
2013-4-20,76.9,58.7,49.2,53.0,48.4,46.0,93,72,39,30.02,29.91,19,5,24,0.00
2013-4-21,75.2,62.7,49.1,54.0,47.8,44.0,94,62,36,29.96,29.88,12,3,16,0.00
2013-4-22,59.3,52.6,49.7,53.0,50.0,45.0,98,91,60,29.96,29.85,14,6,19,0.00
2013-4-23,59.3,52.5,48.9,55.0,50.6,49.0,99,94,80,29.94,29.85,13,2,16,0.00
2013-4-24,57.0,53.0,49.3,54.0,50.5,49.0,99,92,78,29.94,29.83,11,2,14,0.01
2013-4-25,62.1,55.4,49.1,52.0,49.8,48.0,95,82,65,30.08,29.94,17,5,20,0.00
2013-4-26,64.5,53.5,48.1,55.0,50.1,47.0,97,88,69,30.16,30.07,19,5,20,0.00
2013-4-27,60.0,51.9,47.4,56.0,49.7,47.0,99,93,79,30.16,30.01,16,5,18,0.00
2013-4-28,63.5,53.4,46.8,59.0,50.2,46.0,100,90,72,30.03,29.84,9,3,11,0.00
2013-4-29,67.0,52.8,46.1,56.0,50.3,46.0,99,92,68,29.87,29.75,15,4,15,0.00
2013-4-30,49.9,49.6,49.0,50.0,49.3,49.0,99,99,99,29.79,29.76,10,3,10,0.00